Time;durP1;ratioP1;P1;durP2;ratioP2;P2;SDS_P1;SDS_P2;PMS_P1;PMS_P2;Temp;Humidity;BMP_temperature;BMP_pressure;BME280_temperature;BME280_humidity;BME280_pressure;Samples;Min_cycle;Max_cycle;Signal;HPM_P1;HPM_P2
2022/06/17 00:02:13;;;;;;;4.57;2.03;;;;;;;16.05;72.82;100458.09;5069757;28;20530;-82
2022/06/17 00:04:38;;;;;;;3.75;1.90;;;;;;;15.94;72.98;100451.34;5053284;28;20032;-83
2022/06/17 00:07:10;;;;;;;4.60;1.83;;;;;;;15.83;73.55;100455.25;5068211;28;20388;-82
2022/06/17 00:09:36;;;;;;;2.45;1.63;;;;;;;15.76;73.96;100455.13;5051910;28;20059;-82
2022/06/17 00:12:06;;;;;;;4.28;1.73;;;;;;;15.77;74.26;100463.97;5058368;28;20033;-82
2022/06/17 00:15:11;;;;;;;3.72;1.45;;;;;;;15.71;74.45;100455.66;5043312;28;20043;-82
2022/06/17 00:17:22;;;;;;;3.47;1.55;;;;;;;15.66;74.68;100449.19;5057039;28;20119;-82
2022/06/17 00:19:47;;;;;;;5.72;1.88;;;;;;;15.66;74.68;100442.03;5068799;28;20115;-83
2022/06/17 00:22:13;;;;;;;3.08;1.50;;;;;;;15.66;74.72;100431.38;5054329;28;20101;-82
2022/06/17 00:24:39;;;;;;;2.63;1.60;;;;;;;15.67;74.83;100424.22;5054130;28;20028;-81
2022/06/17 00:27:09;;;;;;;4.40;1.65;;;;;;;15.69;74.89;100433.69;5070767;28;20074;-82
2022/06/17 00:29:35;;;;;;;4.03;1.88;;;;;;;15.66;74.89;100425.22;5074051;28;20032;-84
2022/06/17 00:32:00;;;;;;;5.15;1.65;;;;;;;15.69;74.94;100424.88;5073947;28;20082;-84
2022/06/17 00:34:27;;;;;;;4.70;1.80;;;;;;;15.70;75.03;100424.69;5056553;28;20119;-83
2022/06/17 00:36:56;;;;;;;3.72;1.17;;;;;;;15.76;75.01;100425.81;5091216;28;20537;-82
2022/06/17 00:39:27;;;;;;;3.47;1.65;;;;;;;15.80;74.78;100421.78;5073758;28;20024;-82
2022/06/17 00:41:58;;;;;;;7.68;1.52;;;;;;;15.82;74.69;100417.09;5033968;28;20032;-83
2022/06/17 00:44:36;;;;;;;6.03;1.45;;;;;;;15.85;74.71;100411.41;5056715;28;20044;-82
2022/06/17 00:47:46;;;;;;;5.05;1.48;;;;;;;15.87;74.58;100409.41;5054504;28;20388;-82
2022/06/17 00:50:15;;;;;;;4.07;1.25;;;;;;;15.91;74.61;100401.06;5083218;28;20052;-84
2022/06/17 00:53:01;;;;;;;3.58;1.63;;;;;;;15.93;74.20;100393.69;5066073;28;20028;-84
2022/06/17 00:55:33;;;;;;;3.05;1.50;;;;;;;15.90;74.44;100394.03;5065035;28;20041;-84
2022/06/17 00:58:07;;;;;;;3.75;1.65;;;;;;;15.87;74.45;100389.91;5056470;28;20098;-84
2022/06/17 01:00:34;;;;;;;3.83;1.67;;;;;;;15.74;74.94;100378.03;5071090;28;20081;-82
2022/06/17 01:03:05;;;;;;;6.15;1.60;;;;;;;15.65;75.31;100370.28;5081478;28;20089;-82
2022/06/17 01:05:48;;;;;;;4.75;1.50;;;;;;;15.58;75.68;100367.50;5054268;28;20021;-82
2022/06/17 01:11:12;;;;;;;6.30;1.70;;;;;;;15.48;76.07;100357.94;5072158;28;20038;-82
2022/06/17 01:13:39;;;;;;;7.85;1.70;;;;;;;15.54;76.02;100360.91;5057590;28;20039;-82
2022/06/17 01:16:05;;;;;;;5.32;1.63;;;;;;;15.55;75.96;100354.56;5074018;28;20396;-82
2022/06/17 01:18:37;;;;;;;6.03;1.83;;;;;;;15.55;76.20;100358.06;5056084;28;20037;-82
2022/06/17 01:21:43;;;;;;;6.45;1.55;;;;;;;15.58;75.94;100362.19;5065474;28;20032;-82
2022/06/17 01:24:10;;;;;;;4.97;1.63;;;;;;;15.65;75.61;100341.81;5062173;28;20028;-82
2022/06/17 01:26:36;;;;;;;7.28;1.48;;;;;;;15.65;75.67;100357.81;5057433;28;20046;-82
2022/06/17 01:29:06;;;;;;;5.10;1.85;;;;;;;15.65;75.69;100354.31;5083582;28;20115;-81
2022/06/17 01:31:32;;;;;;;6.95;1.48;;;;;;;15.59;76.00;100358.53;5068007;28;20036;-82
2022/06/17 01:33:58;;;;;;;6.18;1.85;;;;;;;15.52;76.36;100347.75;5038245;28;20040;-82
2022/06/17 01:36:29;;;;;;;7.80;1.70;;;;;;;15.48;76.44;100347.28;5076400;28;20036;-85
2022/06/17 01:38:58;;;;;;;7.75;1.92;;;;;;;15.44;76.71;100345.16;5069869;28;20027;-85
2022/06/17 01:41:27;;;;;;;4.07;1.60;;;;;;;15.42;76.90;100344.50;5058309;28;20044;-84
2022/06/17 01:43:58;;;;;;;6.40;1.80;;;;;;;15.36;77.08;100338.91;5070696;28;20036;-85
2022/06/17 01:46:40;;;;;;;3.90;1.90;;;;;;;15.33;77.19;100352.56;5059534;28;20492;-85
2022/06/17 01:49:16;;;;;;;4.65;1.50;;;;;;;15.32;77.31;100353.56;5059743;28;20069;-85
2022/06/17 01:51:49;;;;;;;7.28;1.70;;;;;;;15.30;77.47;100355.59;5075039;28;20034;-82
2022/06/17 01:54:23;;;;;;;7.97;1.85;;;;;;;15.28;77.83;100346.09;5075378;28;20107;-83
2022/06/17 01:56:53;;;;;;;5.00;1.83;;;;;;;15.23;78.06;100344.81;5083800;28;20108;-83
2022/06/17 01:59:34;;;;;;;9.65;2.42;;;;;;;15.21;78.35;100356.66;5057022;28;20094;-82
2022/06/17 02:02:03;;;;;;;5.78;1.80;;;;;;;15.17;78.54;100350.84;5075012;28;20040;-83
2022/06/17 02:04:36;;;;;;;9.18;2.10;;;;;;;15.16;78.90;100356.34;5055483;28;20031;-83
2022/06/17 02:07:14;;;;;;;3.80;1.70;;;;;;;15.13;78.83;100353.03;5026489;28;20431;-83
2022/06/17 02:09:42;;;;;;;6.18;1.77;;;;;;;15.13;79.05;100353.03;5064582;28;20036;-83
2022/06/17 02:12:09;;;;;;;5.68;1.50;;;;;;;15.12;79.23;100363.84;5063304;28;20032;-83
2022/06/17 02:14:36;;;;;;;5.10;1.70;;;;;;;15.15;79.03;100365.31;5071364;28;20081;-84
2022/06/17 02:17:20;;;;;;;7.13;1.60;;;;;;;15.14;78.89;100353.88;5080491;28;20032;-82
2022/06/17 02:19:58;;;;;;;7.22;2.10;;;;;;;15.15;78.90;100352.00;5051919;28;20031;-82
2022/06/17 02:22:29;;;;;;;7.03;1.77;;;;;;;15.18;78.54;100359.69;5063368;28;20032;-83
2022/06/17 02:25:10;;;;;;;8.05;2.05;;;;;;;15.17;78.69;100358.84;5047935;28;20051;-82
2022/06/17 02:27:38;;;;;;;9.82;1.95;;;;;;;15.22;78.31;100359.16;5093121;28;20101;-82
2022/06/17 02:30:07;;;;;;;6.97;1.77;;;;;;;15.25;78.18;100361.44;5058274;28;20476;-82
2022/06/17 02:32:34;;;;;;;3.53;1.77;;;;;;;15.28;78.20;100351.44;5070555;28;20056;-82
2022/06/17 02:35:23;;;;;;;6.47;1.67;;;;;;;15.28;77.96;100348.75;5071587;28;20115;-83
2022/06/17 02:37:52;;;;;;;7.05;2.13;;;;;;;15.32;77.93;100347.41;5071037;28;20059;-81
2022/06/17 02:40:28;;;;;;;7.70;1.50;;;;;;;15.33;77.49;100347.25;5053755;28;20044;-82
2022/06/17 02:42:54;;;;;;;7.88;1.95;;;;;;;15.34;77.42;100348.88;5061430;28;20038;-82
2022/06/17 02:45:24;;;;;;;6.72;1.55;;;;;;;15.36;76.98;100336.22;5070819;28;20037;-82
2022/06/17 02:47:51;;;;;;;5.82;1.73;;;;;;;15.38;76.99;100341.38;5053764;28;20036;-83
2022/06/17 02:50:21;;;;;;;6.93;1.58;;;;;;;15.37;76.79;100340.53;5066349;28;20499;-84
2022/06/17 02:52:50;;;;;;;6.05;1.48;;;;;;;15.39;76.66;100343.03;5036813;28;20051;-84
2022/06/17 02:55:26;;;;;;;4.05;1.40;;;;;;;15.41;76.31;100350.84;5070856;28;20090;-82
2022/06/17 02:58:00;;;;;;;5.38;1.60;;;;;;;15.41;76.00;100346.34;5037884;28;20119;-82
2022/06/17 03:00:26;;;;;;;6.40;1.55;;;;;;;15.48;75.56;100354.47;5062198;28;20040;-82
2022/06/17 03:02:57;;;;;;;3.30;1.50;;;;;;;15.48;75.33;100352.59;5071018;28;20396;-82
2022/06/17 03:05:28;;;;;;;7.65;1.73;;;;;;;15.49;74.99;100348.94;5087321;28;20032;-82
2022/06/17 03:07:57;;;;;;;4.65;1.33;;;;;;;15.49;74.96;100340.13;5054745;28;20484;-82
2022/06/17 03:10:32;;;;;;;3.90;1.13;;;;;;;15.49;74.74;100340.13;5053226;28;20067;-84
2022/06/17 03:13:30;;;;;;;6.07;1.42;;;;;;;15.48;74.43;100346.47;5053732;28;20041;-84
2022/06/17 03:16:02;;;;;;;5.75;1.15;;;;;;;15.52;74.23;100342.44;5054361;28;20057;-82
2022/06/17 03:18:29;;;;;;;11.40;1.58;;;;;;;15.52;73.88;100339.75;5048900;28;20111;-82
2022/06/17 03:20:57;;;;;;;10.05;1.88;;;;;;;15.49;73.75;100345.44;5070035;28;20024;-84
2022/06/17 03:23:57;;;;;;;6.50;1.25;;;;;;;15.48;73.51;100357.13;5064435;28;20462;-84
2022/06/17 03:26:28;;;;;;;5.75;1.50;;;;;;;15.53;73.41;100356.59;5058002;28;20032;-82
2022/06/17 03:28:56;;;;;;;5.95;1.58;;;;;;;15.53;73.39;100357.38;5037395;28;20131;-82
2022/06/17 03:31:48;;;;;;;13.73;1.42;;;;;;;15.58;73.09;100348.88;5056378;28;20441;-82
2022/06/17 03:34:24;;;;;;;5.55;1.35;;;;;;;15.66;72.74;100347.97;5057903;28;20131;-82
2022/06/17 03:37:03;;;;;;;5.57;1.40;;;;;;;15.66;72.65;100339.97;5054053;28;20063;-82
2022/06/17 03:39:48;;;;;;;7.68;1.45;;;;;;;15.71;72.57;100340.25;5044987;28;20068;-82
2022/06/17 03:42:38;;;;;;;2.53;1.08;;;;;;;15.69;72.15;100342.25;5060975;28;20035;-82
2022/06/17 03:45:22;;;;;;;7.43;1.50;;;;;;;15.72;72.28;100353.41;5086525;28;20123;-82
2022/06/17 03:47:57;;;;;;;7.47;1.23;;;;;;;15.75;71.94;100344.25;5038410;28;20039;-82
2022/06/17 03:50:28;;;;;;;6.93;1.23;;;;;;;15.70;72.05;100339.41;5056122;28;20042;-82
2022/06/17 03:53:30;;;;;;;4.30;1.10;;;;;;;15.66;71.99;100334.63;5056774;28;20118;-82
2022/06/17 03:56:30;;;;;;;7.60;1.55;;;;;;;15.68;72.08;100329.97;5055974;28;20423;-84
2022/06/17 03:59:02;;;;;;;8.60;1.60;;;;;;;15.59;72.24;100337.22;5063959;28;20070;-84
2022/06/17 04:01:38;;;;;;;8.73;1.85;;;;;;;15.55;72.53;100341.22;5074209;28;20046;-82
2022/06/17 04:04:24;;;;;;;7.97;1.80;;;;;;;15.43;72.87;100319.53;5058159;28;20032;-82
2022/06/17 04:06:54;;;;;;;9.52;1.85;;;;;;;15.37;73.42;100308.59;5057901;28;20063;-85
2022/06/17 04:09:30;;;;;;;7.68;1.63;;;;;;;15.35;73.51;100309.78;5055821;28;20046;-84
2022/06/17 04:12:01;;;;;;;10.05;2.30;;;;;;;15.32;74.03;100294.97;5057773;28;20051;-82
2022/06/17 04:14:29;;;;;;;9.05;2.10;;;;;;;15.29;74.42;100298.00;5055672;28;20043;-82
2022/06/17 04:17:05;;;;;;;5.38;1.75;;;;;;;15.24;74.80;100287.06;5062706;28;20240;-82
2022/06/17 04:19:35;;;;;;;9.52;1.98;;;;;;;15.22;75.30;100291.75;5057555;28;20480;-82
2022/06/17 04:22:18;;;;;;;14.20;2.50;;;;;;;15.23;75.20;100304.88;5074339;28;20107;-82
2022/06/17 04:25:07;;;;;;;12.98;2.00;;;;;;;15.22;75.37;100297.91;5074488;28;20035;-82
2022/06/17 04:30:27;;;;;;;7.55;2.00;;;;;;;15.24;75.71;100293.22;5090824;28;20073;-82
2022/06/17 04:32:59;;;;;;;11.40;3.00;;;;;;;15.31;75.53;100298.66;5054406;28;20147;-82
2022/06/17 04:35:26;;;;;;;12.07;2.35;;;;;;;15.35;75.56;100291.94;5062592;28;20489;-84
2022/06/17 04:37:51;;;;;;;8.20;2.22;;;;;;;15.40;75.33;100287.94;5057235;28;20039;-84
2022/06/17 04:41:00;;;;;;;7.45;1.77;;;;;;;15.37;75.70;100299.75;5016084;28;20111;-84
2022/06/17 04:43:58;;;;;;;9.50;2.00;;;;;;;15.36;75.88;100290.13;4977973;28;20185;-84
2022/06/17 04:46:35;;;;;;;9.82;2.55;;;;;;;15.39;75.92;100300.41;5050983;28;20047;-82
2022/06/17 04:49:04;;;;;;;7.55;2.40;;;;;;;15.41;75.97;100298.41;5072963;28;20111;-82
2022/06/17 04:51:34;;;;;;;7.72;2.28;;;;;;;15.38;76.02;100291.59;5072624;28;20043;-82
2022/06/17 04:54:04;;;;;;;8.90;2.08;;;;;;;15.36;76.22;100300.78;5072002;28;20039;-82
2022/06/17 04:56:48;;;;;;;6.97;2.20;;;;;;;15.37;76.13;100313.91;5028706;28;20047;-82
2022/06/17 04:59:44;;;;;;;6.18;2.42;;;;;;;15.41;76.48;100326.88;5085338;28;20031;-83
2022/06/17 05:02:15;;;;;;;9.45;2.38;;;;;;;15.47;76.26;100331.47;5055907;28;20043;-82
2022/06/17 05:05:06;;;;;;;7.20;2.25;;;;;;;15.53;76.24;100335.28;5058319;28;20024;-84
2022/06/17 05:07:39;;;;;;;8.10;1.88;;;;;;;15.55;76.10;100330.56;5012402;28;20032;-84
2022/06/17 05:10:12;;;;;;;11.35;2.45;;;;;;;15.52;76.34;100322.94;5054739;28;20487;-82
2022/06/17 05:12:47;;;;;;;11.30;2.75;;;;;;;15.46;76.53;100321.84;5078071;28;20036;-82
2022/06/17 05:15:17;;;;;;;15.98;2.78;;;;;;;15.48;76.96;100328.63;5059196;28;20369;-82
2022/06/17 05:17:43;;;;;;;9.98;3.10;;;;;;;15.48;76.88;100317.16;5064567;28;20036;-82
2022/06/17 05:20:17;;;;;;;14.82;2.75;;;;;;;15.54;76.87;100328.94;5075428;28;20055;-82
2022/06/17 05:23:04;;;;;;;10.77;2.65;;;;;;;15.55;77.12;100330.56;5050851;28;20365;-82
2022/06/17 05:25:37;;;;;;;11.63;3.20;;;;;;;15.62;77.07;100336.84;5064706;28;20035;-82
2022/06/17 05:28:06;;;;;;;10.57;2.60;;;;;;;15.71;77.03;100337.59;5073002;28;20060;-82
2022/06/17 05:30:36;;;;;;;15.27;3.28;;;;;;;15.81;77.04;100340.00;5086364;28;20036;-82
2022/06/17 05:33:04;;;;;;;9.30;2.55;;;;;;;15.84;76.93;100332.47;5075009;28;20365;-82
2022/06/17 05:35:31;;;;;;;11.43;2.65;;;;;;;15.86;77.28;100318.97;5074277;28;20040;-84
2022/06/17 05:37:58;;;;;;;11.20;2.72;;;;;;;15.90;77.12;100316.75;5039741;28;20051;-85
2022/06/17 05:40:26;;;;;;;8.80;2.28;;;;;;;15.91;77.25;100305.09;5074665;28;20067;-85
2022/06/17 05:42:52;;;;;;;12.73;2.97;;;;;;;15.90;77.62;100309.59;5058010;28;20064;-85
2022/06/17 05:45:22;;;;;;;10.93;2.85;;;;;;;15.93;77.59;100305.72;5053665;28;20028;-84
2022/06/17 05:48:13;;;;;;;9.65;2.55;;;;;;;15.91;77.82;100297.91;5058269;28;20032;-85
2022/06/17 05:51:03;;;;;;;9.88;2.17;;;;;;;15.83;78.45;100300.69;5031650;28;20051;-83
2022/06/17 05:53:46;;;;;;;10.88;3.00;;;;;;;15.79;78.57;100294.88;5075259;28;20369;-83
2022/06/17 05:56:31;;;;;;;11.45;2.80;;;;;;;15.73;79.18;100288.47;5060124;28;20028;-83
2022/06/17 05:58:57;;;;;;;14.27;2.95;;;;;;;15.72;79.32;100277.94;5065912;28;20105;-83
2022/06/17 06:01:23;;;;;;;12.43;3.25;;;;;;;15.74;79.37;100291.94;5075150;28;20032;-85
2022/06/17 06:03:49;;;;;;;9.50;2.65;;;;;;;15.73;79.47;100272.47;5074896;28;20028;-85
2022/06/17 06:06:14;;;;;;;10.55;2.72;;;;;;;15.80;79.64;100291.19;5048618;28;20032;-83
2022/06/17 06:08:42;;;;;;;12.02;3.10;;;;;;;15.82;79.68;100285.69;5069634;28;20044;-83
2022/06/17 06:11:08;;;;;;;13.02;3.10;;;;;;;15.85;79.91;100291.47;5071838;28;20028;-83
2022/06/17 06:13:40;;;;;;;10.80;2.75;;;;;;;15.87;79.95;100278.81;5071920;28;20108;-82
2022/06/17 06:16:08;;;;;;;17.92;3.05;;;;;;;15.93;79.76;100282.56;5071846;28;20035;-85
2022/06/17 06:18:45;;;;;;;19.45;4.03;;;;;;;16.00;79.68;100282.69;5055060;28;20392;-85
2022/06/17 06:21:22;;;;;;;12.20;3.53;;;;;;;16.06;79.75;100284.63;5011176;28;20106;-82
2022/06/17 06:23:49;;;;;;;11.07;3.38;;;;;;;16.11;79.59;100292.91;5072525;28;20024;-82
2022/06/17 06:26:23;;;;;;;14.88;3.20;;;;;;;16.19;79.42;100299.97;5073972;28;20044;-82
2022/06/17 06:29:06;;;;;;;12.75;3.60;;;;;;;16.24;79.43;100286.09;5074089;28;20072;-83
2022/06/17 06:31:36;;;;;;;13.73;3.50;;;;;;;16.30;79.47;100295.16;5053160;28;20485;-84
2022/06/17 06:34:28;;;;;;;13.27;3.17;;;;;;;16.36;79.20;100297.94;5075813;28;20040;-83
2022/06/17 06:36:54;;;;;;;6.70;2.85;;;;;;;16.44;79.09;100294.31;5061196;28;20093;-83
2022/06/17 06:39:21;;;;;;;12.15;3.67;;;;;;;16.49;79.06;100280.41;5073748;28;20032;-82
2022/06/17 06:41:49;;;;;;;12.93;2.90;;;;;;;16.56;79.27;100288.50;5073855;28;20128;-82
2022/06/17 06:44:15;;;;;;;20.42;3.60;;;;;;;16.59;78.99;100280.13;5058251;28;20032;-82
2022/06/17 06:46:47;;;;;;;13.90;3.65;;;;;;;16.64;79.30;100292.91;5093269;28;20031;-82
2022/06/17 06:49:28;;;;;;;15.25;3.60;;;;;;;16.71;79.20;100312.47;5011925;28;20399;-82
2022/06/17 06:51:54;;;;;;;15.27;3.75;;;;;;;16.75;78.96;100319.09;5074602;28;20036;-82
2022/06/17 06:54:20;;;;;;;16.50;3.45;;;;;;;16.84;78.78;100319.81;5057636;28;20028;-83
2022/06/17 06:56:46;;;;;;;10.88;3.10;;;;;;;16.84;78.81;100319.81;5075507;28;20388;-83
2022/06/17 06:59:13;;;;;;;13.68;3.17;;;;;;;16.89;78.80;100325.41;5081209;28;20047;-82
2022/06/17 07:01:39;;;;;;;11.00;2.97;;;;;;;16.96;78.62;100314.81;5077776;28;20507;-82
2022/06/17 07:04:05;;;;;;;14.43;3.50;;;;;;;17.04;78.45;100321.88;5042210;28;20036;-82
2022/06/17 07:06:35;;;;;;;19.05;3.35;;;;;;;17.06;78.28;100317.13;5075623;28;20120;-84
2022/06/17 07:09:00;;;;;;;13.52;3.30;;;;;;;17.06;78.34;100323.31;5055393;28;20028;-84
2022/06/17 07:11:26;;;;;;;19.25;3.58;;;;;;;17.08;78.28;100324.00;5092012;28;20089;-82
2022/06/17 07:13:52;;;;;;;16.73;3.75;;;;;;;17.04;78.24;100329.88;5065666;28;20551;-82
2022/06/17 07:16:18;;;;;;;13.10;3.25;;;;;;;17.07;78.19;100337.50;5083891;28;20028;-82
2022/06/17 07:18:44;;;;;;;15.85;3.92;;;;;;;17.13;78.13;100339.44;5092212;28;20064;-83
2022/06/17 07:21:13;;;;;;;10.82;3.60;;;;;;;17.18;77.84;100336.19;5091965;28;20066;-83
2022/06/17 07:23:44;;;;;;;15.38;3.58;;;;;;;17.25;77.80;100331.72;5056125;28;20468;-83
2022/06/17 07:26:18;;;;;;;11.18;2.95;;;;;;;17.29;77.57;100330.34;5040831;28;20048;-83
2022/06/17 07:28:46;;;;;;;10.38;3.50;;;;;;;17.31;77.67;100325.63;5069889;28;20560;-83
2022/06/17 07:31:12;;;;;;;12.95;2.95;;;;;;;17.34;77.78;100332.44;5056828;28;20040;-83
2022/06/17 07:33:38;;;;;;;11.80;3.10;;;;;;;17.41;77.67;100335.16;5071260;28;20069;-83
2022/06/17 07:36:06;;;;;;;18.15;3.47;;;;;;;17.56;77.63;100327.06;5074317;28;20044;-82
2022/06/17 07:41:24;;;;;;;15.20;3.83;;;;;;;18.03;77.29;100335.38;5074293;28;20403;-82
2022/06/17 07:43:54;;;;;;;14.68;3.08;;;;;;;18.23;76.62;100345.41;5066692;28;20081;-83
2022/06/17 07:46:20;;;;;;;12.75;2.38;;;;;;;18.35;75.88;100343.84;5085939;28;20552;-83
2022/06/17 07:48:46;;;;;;;8.70;2.38;;;;;;;18.45;75.49;100350.66;5052569;28;20043;-82
2022/06/17 07:51:12;;;;;;;13.30;2.40;;;;;;;18.49;74.87;100359.13;5070090;28;20036;-82
2022/06/17 07:53:42;;;;;;;11.15;2.70;;;;;;;18.50;74.41;100364.28;5050239;28;20059;-83
2022/06/17 07:56:13;;;;;;;14.18;3.00;;;;;;;18.44;73.97;100357.84;5075804;28;20039;-83
2022/06/17 07:58:39;;;;;;;9.52;2.33;;;;;;;18.39;73.53;100354.13;5052944;28;20043;-82
2022/06/17 08:01:06;;;;;;;25.45;3.28;;;;;;;18.34;73.41;100358.25;5088929;28;20122;-83
2022/06/17 08:03:32;;;;;;;7.68;1.80;;;;;;;18.34;72.84;100360.91;5055764;28;20495;-82
2022/06/17 08:06:01;;;;;;;14.98;2.40;;;;;;;18.33;72.65;100367.28;5071034;28;20066;-83
2022/06/17 08:08:27;;;;;;;10.70;2.30;;;;;;;18.32;72.42;100362.97;5057494;28;20039;-83
2022/06/17 08:10:57;;;;;;;10.40;2.80;;;;;;;18.34;72.33;100373.47;5072658;28;20118;-83
2022/06/17 08:13:23;;;;;;;8.57;2.22;;;;;;;18.34;72.27;100374.31;5082570;28;20032;-83
2022/06/17 08:15:53;;;;;;;7.82;2.10;;;;;;;18.36;72.01;100384.81;5034152;28;20067;-82
2022/06/17 08:18:20;;;;;;;8.82;2.30;;;;;;;18.35;71.88;100372.44;5061543;28;20032;-81
2022/06/17 08:20:46;;;;;;;8.82;2.47;;;;;;;18.40;71.77;100370.00;5053674;28;20036;-82
2022/06/17 08:23:14;;;;;;;10.10;2.17;;;;;;;18.44;71.60;100375.78;5089721;28;20043;-83
2022/06/17 08:25:40;;;;;;;10.10;2.55;;;;;;;18.44;71.55;100383.81;5089156;28;20024;-85
2022/06/17 08:28:09;;;;;;;11.40;2.72;;;;;;;18.43;71.81;100376.78;5089933;28;20032;-84
2022/06/17 08:30:39;;;;;;;15.25;2.33;;;;;;;18.45;71.67;100380.09;5055784;28;20032;-82
2022/06/17 08:33:05;;;;;;;12.57;2.38;;;;;;;18.47;71.50;100380.75;5089906;28;20126;-82
2022/06/17 08:35:41;;;;;;;10.23;2.42;;;;;;;18.51;71.62;100387.34;5071857;28;20030;-82
2022/06/17 08:38:06;;;;;;;8.77;2.40;;;;;;;18.51;71.66;100379.31;5086070;28;20066;-82
2022/06/17 08:40:53;;;;;;;11.30;2.60;;;;;;;18.56;71.60;100382.22;5036657;28;20033;-82
2022/06/17 08:43:28;;;;;;;9.10;2.83;;;;;;;18.60;71.88;100391.50;5040475;28;20047;-83
2022/06/17 08:46:13;;;;;;;10.90;2.27;;;;;;;18.56;71.55;100403.63;5070594;28;20491;-83
2022/06/17 08:49:04;;;;;;;11.13;2.75;;;;;;;18.52;71.74;100399.69;5059464;28;20396;-82
2022/06/17 08:52:01;;;;;;;10.20;2.17;;;;;;;18.51;71.62;100413.25;5070489;28;20028;-85
2022/06/17 08:54:43;;;;;;;10.98;2.67;;;;;;;18.43;72.05;100419.59;5087220;28;20039;-85
2022/06/17 08:57:47;;;;;;;14.32;3.20;;;;;;;18.36;71.83;100419.59;5057234;28;20048;-85
2022/06/17 09:00:18;;;;;;;9.15;2.08;;;;;;;18.34;72.17;100429.66;5076612;28;20032;-85
2022/06/17 09:02:59;;;;;;;9.30;2.58;;;;;;;18.34;72.09;100435.00;5075560;28;20530;-85
2022/06/17 09:05:40;;;;;;;9.02;2.65;;;;;;;18.27;71.97;100434.16;5058086;28;20040;-83
2022/06/17 09:08:17;;;;;;;9.13;1.92;;;;;;;18.12;71.95;100426.22;5055787;28;20126;-83
2022/06/17 09:10:58;;;;;;;6.32;2.15;;;;;;;18.09;72.44;100433.56;5068782;28;20024;-83
2022/06/17 09:13:37;;;;;;;8.35;2.80;;;;;;;18.02;72.30;100431.88;5090721;28;20097;-82
2022/06/17 09:16:30;;;;;;;9.18;2.47;;;;;;;17.92;72.89;100429.53;5083868;28;20046;-83
2022/06/17 09:19:02;;;;;;;10.35;2.15;;;;;;;17.88;73.41;100429.09;5075779;28;20028;-83
2022/06/17 09:21:47;;;;;;;7.68;2.15;;;;;;;17.87;73.61;100434.66;5074553;28;20028;-84
2022/06/17 09:24:18;;;;;;;10.40;2.28;;;;;;;17.90;73.72;100435.06;5062392;28;20059;-85
2022/06/17 09:26:50;;;;;;;7.15;2.00;;;;;;;17.93;73.56;100434.66;5075756;28;20040;-82
2022/06/17 09:29:29;;;;;;;9.50;2.53;;;;;;;17.98;73.61;100437.59;5093380;28;20035;-83
2022/06/17 09:32:02;;;;;;;9.20;2.20;;;;;;;18.04;73.58;100437.84;5090357;28;20040;-83
2022/06/17 09:34:28;;;;;;;9.30;2.03;;;;;;;18.02;73.85;100440.72;5076375;28;20036;-83
2022/06/17 09:37:52;;;;;;;7.53;2.10;;;;;;;17.96;73.68;100442.31;5085621;28;20408;-83
2022/06/17 09:40:18;;;;;;;8.70;2.28;;;;;;;17.97;73.96;100443.97;5043742;28;20081;-83
2022/06/17 09:42:46;;;;;;;10.80;2.28;;;;;;;18.00;74.34;100437.41;5058487;28;20036;-82
2022/06/17 09:45:14;;;;;;;7.63;2.28;;;;;;;18.02;74.40;100445.22;5075180;28;20031;-82
2022/06/17 09:47:57;;;;;;;10.27;2.15;;;;;;;18.04;74.37;100448.56;5079016;28;20477;-83
2022/06/17 09:50:31;;;;;;;12.65;2.22;;;;;;;18.05;74.43;100452.88;5091775;28;20038;-83
2022/06/17 09:53:06;;;;;;;9.10;2.38;;;;;;;18.09;74.49;100454.16;5074168;28;20492;-83
2022/06/17 09:55:41;;;;;;;7.05;2.03;;;;;;;18.10;74.38;100469.16;5070993;28;20029;-85
2022/06/17 09:58:21;;;;;;;9.77;1.90;;;;;;;18.11;74.58;100468.13;5057635;28;20032;-86
2022/06/17 10:00:51;;;;;;;8.10;1.90;;;;;;;18.08;74.73;100469.38;5074671;28;20848;-84
2022/06/17 10:03:19;;;;;;;8.48;1.95;;;;;;;18.07;74.92;100472.22;5075771;28;20404;-83
2022/06/17 10:05:59;;;;;;;5.57;1.58;;;;;;;18.03;75.33;100463.75;5042303;28;20396;-84
2022/06/17 10:08:50;;;;;;;6.68;1.58;;;;;;;18.01;75.63;100471.19;5042459;28;20384;-84
2022/06/17 10:11:52;;;;;;;7.30;1.30;;;;;;;17.90;75.97;100482.38;5019884;28;20036;-84
2022/06/17 10:14:52;;;;;;;6.82;1.58;;;;;;;17.92;76.27;100478.50;5029364;28;20061;-84
2022/06/17 10:20:35;;;;;;;5.18;1.20;;;;;;;17.88;76.62;100484.41;5065720;28;20046;-86
2022/06/17 10:23:19;;;;;;;4.45;1.10;;;;;;;17.95;76.82;100485.28;5057122;28;20051;-85
2022/06/17 10:26:03;;;;;;;4.63;0.88;;;;;;;18.04;76.64;100483.31;5086957;28;20028;-84
2022/06/17 10:28:48;;;;;;;4.25;1.35;;;;;;;18.06;76.71;100483.97;5092531;28;20480;-84
2022/06/17 10:31:19;;;;;;;8.15;1.30;;;;;;;18.11;76.79;100486.88;5068195;28;20063;-84
2022/06/17 10:33:45;;;;;;;6.28;0.98;;;;;;;18.16;76.83;100489.81;5078493;28;20032;-83
2022/06/17 10:36:11;;;;;;;9.23;1.25;;;;;;;18.18;76.92;100493.13;5049446;28;20042;-82
2022/06/17 10:38:47;;;;;;;5.38;1.20;;;;;;;18.27;76.87;100499.16;5090601;28;20426;-83
2022/06/17 10:41:14;;;;;;;;;;;;;;;18.22;77.47;100499.75;5058664;28;20040;-83
2022/06/17 10:43:47;;;;;;;5.80;1.02;;;;;;;18.44;76.86;100501.56;5056909;28;19938;-83
2022/06/17 10:46:17;;;;;;;3.80;0.88;;;;;;;18.49;76.52;100507.13;5076943;28;20028;-86
2022/06/17 10:49:01;;;;;;;5.47;0.90;;;;;;;18.45;76.52;100508.56;5073323;28;20035;-86
2022/06/17 10:51:28;;;;;;;3.75;0.93;;;;;;;18.46;76.78;100512.88;5084169;28;20115;-83
2022/06/17 10:54:02;;;;;;;6.00;0.82;;;;;;;18.61;76.48;100510.09;5091396;28;20060;-84
2022/06/17 10:56:34;;;;;;;1.88;0.70;;;;;;;18.65;76.36;100515.91;5055361;28;20051;-84
2022/06/17 10:59:06;;;;;;;3.72;0.85;;;;;;;18.65;76.20;100532.78;5072211;28;20035;-84
2022/06/17 11:01:48;;;;;;;4.07;0.70;;;;;;;18.66;76.07;100531.78;5066379;28;20039;-83
2022/06/17 11:04:25;;;;;;;2.20;0.80;;;;;;;18.66;76.17;100530.94;5072847;28;20032;-83
2022/06/17 11:06:55;;;;;;;4.53;0.70;;;;;;;18.63;76.48;100531.31;5073788;28;20039;-83
2022/06/17 11:09:27;;;;;;;5.32;0.70;;;;;;;18.74;76.62;100529.94;5040697;28;20043;-83
2022/06/17 11:12:10;;;;;;;4.78;1.05;;;;;;;18.83;76.08;100534.13;5055313;28;20066;-84
2022/06/17 11:14:39;;;;;;;2.50;0.65;;;;;;;18.91;76.11;100546.53;5083558;28;20062;-84
2022/06/17 11:17:16;;;;;;;2.70;0.60;;;;;;;18.99;75.79;100543.69;5085758;28;20040;-83
2022/06/17 11:19:44;;;;;;;1.70;0.40;;;;;;;19.06;75.80;100555.25;5087530;28;20027;-83
2022/06/17 11:22:27;;;;;;;1.60;0.40;;;;;;;18.96;75.26;100560.16;5069462;28;20040;-83
2022/06/17 11:25:01;;;;;;;0.93;0.40;;;;;;;18.90;75.71;100559.09;5077328;28;20031;-83
2022/06/17 11:27:41;;;;;;;0.88;0.30;;;;;;;18.87;75.69;100559.50;5045095;28;20435;-84
2022/06/17 11:30:31;;;;;;;0.63;0.43;;;;;;;18.71;75.81;100550.72;5054191;28;20486;-83
2022/06/17 11:33:00;;;;;;;1.73;0.20;;;;;;;18.64;76.68;100557.91;5006495;28;20445;-83
2022/06/17 11:35:35;;;;;;;0.73;0.25;;;;;;;18.60;76.98;100559.31;5078675;28;20617;-85
2022/06/17 11:38:09;;;;;;;1.58;0.40;;;;;;;18.62;77.42;100556.44;5067587;28;20048;-84
2022/06/17 11:40:47;;;;;;;1.15;0.22;;;;;;;18.64;77.40;100557.91;5059757;28;20032;-84
2022/06/17 11:43:25;;;;;;;3.83;0.30;;;;;;;18.70;77.71;100557.13;5081017;28;20021;-84
2022/06/17 11:45:51;;;;;;;0.63;0.20;;;;;;;18.83;77.51;100561.72;5042111;28;20032;-84
2022/06/17 11:48:20;;;;;;;0.95;0.30;;;;;;;18.87;77.41;100572.06;5056268;28;20056;-84
2022/06/17 11:51:06;;;;;;;0.75;0.20;;;;;;;18.89;77.16;100570.00;5064973;28;20047;-85
2022/06/17 11:53:46;;;;;;;0.50;0.20;;;;;;;18.91;76.93;100563.44;5041029;28;20112;-85
2022/06/17 11:56:27;;;;;;;0.65;0.10;;;;;;;18.89;77.08;100576.19;5063504;28;20516;-85
2022/06/17 11:58:56;;;;;;;0.10;0.03;;;;;;;18.89;76.95;100580.72;5064741;28;20036;-85
2022/06/17 12:01:22;;;;;;;2.92;0.10;;;;;;;18.91;76.74;100573.31;5026395;28;20563;-84
2022/06/17 12:03:48;;;;;;;3.03;0.10;;;;;;;18.96;76.51;100576.22;5035503;28;20032;-84
2022/06/17 12:06:27;;;;;;;0.10;0.10;;;;;;;18.94;76.43;100578.25;5048492;28;20028;-85